createdAt,value
2023-04-27T00:00:37.751Z,92.6479
2023-04-27T00:01:38.293Z,92.7707
2023-04-27T00:02:39.575Z,93.0783
2023-04-27T00:03:40.003Z,93.2575
2023-04-27T00:04:40.303Z,93.4284
2023-04-27T00:05:40.354Z,93.5201
2023-04-27T00:06:40.332Z,93.5143
2023-04-27T00:07:40.972Z,93.5233
2023-04-27T00:08:41.528Z,93.4717
2023-04-27T00:09:41.938Z,93.5090
2023-04-27T00:10:42.611Z,93.6835
2023-04-27T00:11:43.233Z,93.9199
2023-04-27T00:12:43.838Z,94.1569
2023-04-27T00:13:44.376Z,94.4131
2023-04-27T00:14:44.933Z,94.5827
2023-04-27T00:15:45.485Z,94.7321
2023-04-27T00:16:46.074Z,94.8378
2023-04-27T00:17:46.872Z,94.9512
2023-04-27T00:18:47.651Z,95.0330
2023-04-27T00:19:47.629Z,95.0781
2023-04-27T00:20:48.087Z,95.0980
2023-04-27T00:21:48.863Z,95.1021
2023-04-27T00:22:49.389Z,95.1204
2023-04-27T00:23:50.020Z,95.1088
2023-04-27T00:24:50.691Z,95.1060
2023-04-27T00:25:51.413Z,95.0865
2023-04-27T00:26:52.058Z,95.0974
2023-04-27T00:27:52.665Z,95.1286
2023-04-27T00:28:53.083Z,95.1764
2023-04-27T00:29:53.689Z,95.2221
2023-04-27T00:30:54.176Z,95.2638
2023-04-27T00:31:54.956Z,95.3108
2023-04-27T00:32:55.836Z,95.3407
2023-04-27T00:33:56.415Z,95.3718
2023-04-27T00:34:57.063Z,95.4072
2023-04-27T00:35:57.782Z,95.4139
2023-04-27T00:36:58.298Z,95.3751
2023-04-27T00:37:58.893Z,95.2978
2023-04-27T00:38:59.287Z,95.2179
2023-04-27T00:39:59.820Z,95.1605
2023-04-27T00:41:00.467Z,95.0915
2023-04-27T00:42:00.854Z,95.0151
2023-04-27T00:43:01.652Z,94.9519
2023-04-27T00:44:02.251Z,94.8858
2023-04-27T00:45:02.675Z,94.8234
2023-04-27T00:46:03.831Z,94.7789
2023-04-27T00:47:04.358Z,94.7672
2023-04-27T00:48:05.347Z,94.7885
2023-04-27T00:49:05.906Z,94.8016
2023-04-27T00:50:07.178Z,94.8068
2023-04-27T00:51:07.897Z,94.8513
2023-04-27T00:52:08.735Z,94.8592
2023-04-27T00:53:09.231Z,94.8553
2023-04-27T00:54:09.852Z,94.8382
2023-04-27T00:55:10.566Z,94.8974
2023-04-27T00:56:10.986Z,94.9176
2023-04-27T00:57:11.574Z,94.9280
2023-04-27T00:58:12.033Z,94.9440
2023-04-27T00:59:12.965Z,94.9592
2023-04-27T01:00:13.772Z,94.9575
2023-04-27T01:01:14.431Z,94.9664
2023-04-27T01:04:16.368Z,95.0558
2023-04-27T01:05:16.502Z,95.0927
2023-04-27T01:06:17.028Z,95.1811
2023-04-27T01:07:17.649Z,95.2276
2023-04-27T01:08:18.835Z,95.3054
2023-04-27T01:09:19.468Z,95.4104
2023-04-27T01:10:19.545Z,95.4658
2023-04-27T01:11:20.194Z,95.5227
2023-04-27T01:12:20.737Z,95.6080
2023-04-27T01:13:21.386Z,95.7082
2023-04-27T01:14:22.116Z,95.7674
2023-04-27T01:15:22.540Z,95.8064
2023-04-27T01:16:23.191Z,95.8639
2023-04-27T01:17:23.935Z,95.9150
2023-04-27T01:18:24.861Z,95.9473
2023-04-27T01:19:25.789Z,96.0012
2023-04-27T01:20:26.304Z,96.0628
2023-04-27T01:21:27.280Z,96.0896
2023-04-27T01:22:27.895Z,96.0862
2023-04-27T01:23:28.331Z,96.0917
2023-04-27T01:24:29.035Z,96.0869
2023-04-27T01:25:29.527Z,96.0712
2023-04-27T01:26:30.169Z,96.0548
2023-04-27T01:27:30.941Z,96.0335
2023-04-27T01:28:31.361Z,96.0047
2023-04-27T01:29:32.151Z,95.9697
2023-04-27T01:30:33.270Z,95.9281
2023-04-27T01:31:33.416Z,95.8646
2023-04-27T01:32:33.758Z,95.8081
2023-04-27T01:33:34.519Z,95.7670
2023-04-27T01:34:35.069Z,95.7285
2023-04-27T01:35:35.795Z,95.6822
2023-04-27T01:36:36.470Z,95.6621
2023-04-27T01:37:37.397Z,95.5931
2023-04-27T01:38:38.020Z,95.5282
2023-04-27T01:39:38.462Z,95.5152
2023-04-27T01:40:39.266Z,95.5483
2023-04-27T01:41:39.731Z,95.5990
2023-04-27T01:42:40.264Z,95.6932
2023-04-27T01:43:40.931Z,95.8076
2023-04-27T01:44:41.402Z,95.8839
2023-04-27T01:45:42.043Z,95.9966
2023-04-27T01:46:43.129Z,96.0537
2023-04-27T01:47:43.808Z,96.1206
2023-04-27T01:48:44.741Z,96.1905
2023-04-27T01:49:45.953Z,96.2243
2023-04-27T01:50:46.353Z,96.2772
2023-04-27T01:51:46.897Z,96.3173
2023-04-27T01:52:47.427Z,96.3384
2023-04-27T01:53:48.181Z,96.3896
2023-04-27T01:54:48.659Z,96.4415
2023-04-27T01:55:49.189Z,96.4610
2023-04-27T01:56:50.137Z,96.4707
2023-04-27T01:57:50.873Z,96.4996
2023-04-27T01:58:51.267Z,96.5362
2023-04-27T01:59:51.911Z,96.5781
2023-04-27T02:00:52.193Z,96.6082
2023-04-27T02:01:53.073Z,96.6365
2023-04-27T02:02:53.519Z,96.6534
2023-04-27T02:03:53.567Z,96.6702
2023-04-27T02:04:54.083Z,96.6906
2023-04-27T02:05:54.499Z,96.7131
2023-04-27T02:06:55.429Z,96.7407
2023-04-27T02:07:56.270Z,96.7888
2023-04-27T02:08:56.824Z,96.8146
2023-04-27T02:09:57.404Z,96.8624
2023-04-27T02:10:58.363Z,96.9038
2023-04-27T02:11:59.113Z,96.9324
2023-04-27T02:12:59.726Z,96.9467
2023-04-27T02:14:00.552Z,96.9602
2023-04-27T02:15:01.360Z,96.9736
2023-04-27T02:16:02.180Z,96.9816
2023-04-27T02:17:03.299Z,97.0030
2023-04-27T02:18:04.399Z,97.0326
2023-04-27T02:19:05.300Z,97.0513
2023-04-27T02:20:06.122Z,97.0604
2023-04-27T02:21:06.892Z,97.0867
2023-04-27T02:22:07.597Z,97.1330
2023-04-27T02:23:08.087Z,97.2110
2023-04-27T02:24:08.873Z,97.2983
2023-04-27T02:25:10.289Z,97.3717
2023-04-27T02:26:11.156Z,97.4235
2023-04-27T02:28:11.568Z,97.4911
2023-04-27T02:29:12.619Z,97.5134
2023-04-27T02:30:13.182Z,97.5246
2023-04-27T02:31:14.281Z,97.5266
2023-04-27T02:32:15.345Z,97.5435
2023-04-27T02:33:16.278Z,97.5545
2023-04-27T02:34:16.840Z,97.5729
2023-04-27T02:35:17.975Z,97.5916
2023-04-27T02:36:18.723Z,97.6222
2023-04-27T02:37:19.185Z,97.6577
2023-04-27T02:38:19.993Z,97.6859
2023-04-27T02:39:20.548Z,97.6926
2023-04-27T02:40:21.185Z,97.7091
2023-04-27T02:41:21.937Z,97.7100
2023-04-27T02:42:22.415Z,97.7110
2023-04-27T02:43:23.247Z,97.7095
2023-04-27T02:44:23.901Z,97.7186
2023-04-27T02:45:24.577Z,97.7209
2023-04-27T02:46:25.554Z,97.7222
2023-04-27T02:47:26.436Z,97.6980
2023-04-27T02:48:27.260Z,97.6656
2023-04-27T02:49:27.694Z,97.6482
2023-04-27T02:50:27.900Z,97.6285
2023-04-27T02:51:28.732Z,97.6144
2023-04-27T02:52:29.302Z,97.6119
2023-04-27T02:53:30.333Z,97.6086
2023-04-27T02:54:30.929Z,97.6051
2023-04-27T02:55:31.538Z,97.6124
2023-04-27T02:56:32.396Z,97.6268
2023-04-27T02:57:33.133Z,97.6368
2023-04-27T02:58:33.603Z,97.6480
2023-04-27T02:59:34.763Z,97.6728
2023-04-27T03:00:35.573Z,97.6969
2023-04-27T03:01:36.545Z,97.7186
2023-04-27T03:02:36.595Z,97.7318
2023-04-27T03:03:37.594Z,97.7445
2023-04-27T03:04:38.695Z,97.7507
2023-04-27T03:06:38.797Z,97.7819
2023-04-27T03:07:39.451Z,97.7950
2023-04-27T03:08:40.159Z,97.8042
2023-04-27T03:09:40.865Z,97.8359
2023-04-27T03:10:41.513Z,97.8319
2023-04-27T03:11:42.092Z,97.8465
2023-04-27T03:12:42.814Z,97.8709
2023-04-27T03:13:43.510Z,97.8642
2023-04-27T03:14:44.015Z,97.8570
2023-04-27T03:15:44.034Z,97.8569
2023-04-27T03:16:44.696Z,97.8437
2023-04-27T03:17:45.545Z,97.8336
2023-04-27T03:18:46.245Z,97.8241
2023-04-27T03:19:47.440Z,97.8254
2023-04-27T03:20:47.952Z,97.8230
2023-04-27T03:21:48.727Z,97.8200
2023-04-27T03:22:49.283Z,97.8280
2023-04-27T03:23:49.946Z,97.8506
2023-04-27T03:24:50.633Z,97.8735
2023-04-27T03:25:51.183Z,97.8848
2023-04-27T03:26:51.834Z,97.8791
2023-04-27T03:27:52.287Z,97.8892
2023-04-27T03:28:54.724Z,97.8990
2023-04-27T03:29:55.437Z,97.9132
2023-04-27T03:30:55.836Z,97.9338
2023-04-27T03:31:56.896Z,97.9479
2023-04-27T03:32:57.453Z,97.9390
2023-04-27T03:33:57.873Z,97.8889
2023-04-27T03:34:58.536Z,97.8871
2023-04-27T03:35:59.114Z,97.9059
2023-04-27T03:36:59.571Z,97.9218
2023-04-27T03:38:00.215Z,97.9570
2023-04-27T03:39:00.709Z,97.9933
2023-04-27T03:40:01.783Z,98.0023
2023-04-27T03:41:02.470Z,98.0156
2023-04-27T03:42:02.909Z,98.0511
2023-04-27T03:43:03.824Z,98.0877
2023-04-27T03:44:04.462Z,98.1089
2023-04-27T03:45:04.944Z,98.1269
2023-04-27T03:46:06.144Z,98.1447
2023-04-27T03:47:06.901Z,98.1786
2023-04-27T03:48:08.141Z,98.2078
2023-04-27T03:49:08.757Z,98.2288
2023-04-27T03:50:08.873Z,98.2623
2023-04-27T03:51:09.558Z,98.2922
2023-04-27T03:52:10.268Z,98.3305
2023-04-27T03:53:10.988Z,98.3559
2023-04-27T03:54:11.837Z,98.3867
2023-04-27T03:55:12.579Z,98.3956
2023-04-27T03:56:13.167Z,98.4000
2023-04-27T03:57:13.855Z,98.4013
2023-04-27T03:58:14.680Z,98.4041
2023-04-27T03:59:15.487Z,98.4027
2023-04-27T04:00:15.140Z,98.4087
2023-04-27T04:01:16.142Z,98.4075
2023-04-27T04:02:17.130Z,98.3981
2023-04-27T04:03:18.384Z,98.3885
2023-04-27T04:04:18.648Z,98.3778
2023-04-27T04:05:19.313Z,98.3721
2023-04-27T04:12:29.156Z,98.3998
2023-04-27T04:13:30.177Z,98.4158
2023-04-27T04:19:37.782Z,98.4356
2023-04-27T04:20:38.542Z,98.4207
2023-04-27T04:21:39.570Z,98.4073
2023-04-27T04:22:40.090Z,98.3691
2023-04-27T04:31:54.283Z,98.1770
2023-04-27T04:32:55.138Z,98.1753
2023-04-27T04:33:55.845Z,98.1883
2023-04-27T04:34:56.347Z,98.1953
2023-04-27T04:35:56.843Z,98.2059
2023-04-27T04:36:57.881Z,98.2518
2023-04-27T04:38:00.238Z,98.3078
2023-04-27T04:39:02.177Z,98.3339
2023-04-27T04:40:03.446Z,98.3480
2023-04-27T04:41:04.654Z,98.3530
2023-04-27T04:42:05.476Z,98.3664
2023-04-27T04:43:05.736Z,98.3766
2023-04-27T04:44:06.246Z,98.3797
2023-04-27T04:45:08.530Z,98.4032
2023-04-27T04:46:10.767Z,98.4176
2023-04-27T04:47:12.114Z,98.4208
2023-04-27T04:48:13.149Z,98.4266
2023-04-27T04:49:14.236Z,98.4198
2023-04-27T04:50:15.515Z,98.4285
2023-04-27T04:51:14.483Z,98.4381
2023-04-27T04:52:25.982Z,98.4543
2023-04-27T04:53:26.895Z,98.4665
2023-04-27T04:54:28.080Z,98.4623
2023-04-27T04:55:28.512Z,98.3978
2023-04-27T04:56:29.515Z,98.3269
2023-04-27T04:57:31.797Z,98.2625
2023-04-27T04:58:33.135Z,98.2453
2023-04-27T04:59:33.333Z,98.2401
2023-04-27T05:00:33.990Z,98.2422
2023-04-27T05:01:34.927Z,98.2293
2023-04-27T05:02:36.176Z,98.2106
2023-04-27T05:03:37.799Z,98.1924
2023-04-27T05:04:38.622Z,98.1833
2023-04-27T05:06:38.929Z,98.1742
2023-04-27T05:07:39.682Z,98.1803
2023-04-27T05:08:40.019Z,98.1902
2023-04-27T05:09:40.680Z,98.2023
2023-04-27T05:10:41.822Z,98.2064
2023-04-27T05:11:42.678Z,98.2137
2023-04-27T05:12:43.712Z,98.2029
2023-04-27T05:13:44.591Z,98.1077
2023-04-27T05:14:45.046Z,97.8915
2023-04-27T05:15:45.566Z,97.7535
2023-04-27T05:21:54.435Z,97.7894
2023-04-27T05:22:56.120Z,97.8094
2023-04-27T05:23:56.677Z,97.8191
2023-04-27T05:25:09.325Z,97.8142
2023-04-27T05:26:10.334Z,97.7880
2023-04-27T05:27:10.373Z,97.7446
2023-04-27T05:28:11.890Z,97.7233
2023-04-27T05:29:12.255Z,97.7118
2023-04-27T05:30:13.029Z,97.7036
2023-04-27T05:31:14.424Z,97.7289
2023-04-27T05:32:15.791Z,97.7864
2023-04-27T05:33:16.575Z,97.8356
2023-04-27T05:34:17.902Z,97.8899
2023-04-27T05:35:18.244Z,97.9444
2023-04-27T05:36:19.245Z,97.9613
2023-04-27T05:37:20.561Z,97.9793
2023-04-27T05:38:21.317Z,98.0220
2023-04-27T05:39:22.166Z,98.0664
2023-04-27T05:40:22.976Z,98.0956
2023-04-27T05:41:24.182Z,98.1174
2023-04-27T05:44:26.383Z,98.1442
2023-04-27T05:45:28.380Z,98.1435
2023-04-27T05:46:32.867Z,98.1468
2023-04-27T05:48:29.932Z,98.1770
2023-04-27T05:49:30.689Z,98.1883
2023-04-27T05:50:31.187Z,98.1872
2023-04-27T05:56:38.911Z,98.0856
2023-04-27T05:57:39.749Z,98.0826
2023-04-27T05:58:40.099Z,98.0827
2023-04-27T05:59:40.634Z,98.0865
2023-04-27T06:00:41.452Z,98.0915
2023-04-27T06:01:42.306Z,98.0803
2023-04-27T06:02:42.626Z,98.0568
2023-04-27T06:03:42.826Z,98.0086
2023-04-27T06:04:43.229Z,97.9475
2023-04-27T06:05:43.255Z,97.9106
2023-04-27T06:06:44.624Z,97.8832
2023-04-27T06:07:45.390Z,97.8518
2023-04-27T06:08:46.345Z,97.8176
2023-04-27T06:09:47.565Z,97.7804
2023-04-27T06:10:48.114Z,97.7502
2023-04-27T06:11:48.976Z,97.7332
2023-04-27T06:12:49.572Z,97.7479
2023-04-27T06:13:50.224Z,97.8071
2023-04-27T06:14:51.312Z,97.8438
2023-04-27T06:15:52.029Z,97.8803
2023-04-27T06:16:52.832Z,97.9351
2023-04-27T06:17:53.777Z,97.9482
2023-04-27T06:18:54.405Z,97.9461
2023-04-27T06:19:55.118Z,97.9222
2023-04-27T06:20:56.097Z,97.8848
2023-04-27T06:21:57.157Z,97.8477
2023-04-27T06:22:57.745Z,97.8165
2023-04-27T06:23:58.696Z,97.7719
2023-04-27T06:24:59.466Z,97.7318
2023-04-27T06:26:01.138Z,97.6081
2023-04-27T06:27:00.330Z,97.5217
2023-04-27T06:28:01.016Z,97.1507
2023-04-27T06:29:01.848Z,96.4300
2023-04-27T06:30:02.358Z,96.0801
2023-04-27T06:31:03.417Z,95.9866
2023-04-27T06:32:04.794Z,95.7537
2023-04-27T06:33:05.702Z,95.7004
2023-04-27T06:34:06.402Z,95.7953
2023-04-27T06:35:07.147Z,95.7846
2023-04-27T06:36:08.149Z,95.8772
2023-04-27T06:37:09.075Z,96.1268
2023-04-27T06:38:10.002Z,96.1768
2023-04-27T06:39:10.482Z,96.0201
2023-04-27T06:40:11.429Z,95.7446
2023-04-27T06:41:12.057Z,95.6236
2023-04-27T06:42:12.796Z,95.5992
2023-04-27T06:43:13.602Z,95.3409
2023-04-27T06:44:14.837Z,94.9206
2023-04-27T06:45:15.489Z,94.8171
2023-04-27T06:46:16.392Z,94.6979
2023-04-27T06:47:17.076Z,94.6314
2023-04-27T06:48:17.913Z,94.5932
2023-04-27T06:49:18.645Z,94.5069
2023-04-27T06:50:19.083Z,94.4146
2023-04-27T06:51:19.698Z,94.1534
2023-04-27T06:52:20.397Z,94.1997
2023-04-27T06:53:20.741Z,94.5319
2023-04-27T06:54:21.424Z,94.4931
2023-04-27T06:55:21.912Z,94.4652
2023-04-27T06:56:22.155Z,94.5816
2023-04-27T06:57:22.812Z,94.7054
2023-04-27T06:58:23.555Z,94.7621
2023-04-27T06:59:24.893Z,94.4283
2023-04-27T07:00:25.682Z,94.0790
2023-04-27T07:01:26.537Z,93.7296
2023-04-27T07:02:28.191Z,93.5586
2023-04-27T07:03:28.248Z,93.5647
2023-04-27T07:04:29.253Z,94.0374
2023-04-27T07:05:29.119Z,94.3671
2023-04-27T07:06:29.675Z,94.6267
2023-04-27T07:07:30.365Z,94.7450
2023-04-27T07:08:30.875Z,94.7779
2023-04-27T07:09:31.622Z,94.5696
2023-04-27T07:10:32.178Z,94.5699
2023-04-27T07:11:32.960Z,94.6144
2023-04-27T07:12:33.374Z,94.4874
2023-04-27T07:13:34.012Z,94.4242
2023-04-27T07:14:34.660Z,94.5443
2023-04-27T07:15:35.164Z,94.5221
2023-04-27T07:16:36.065Z,94.3476
2023-04-27T07:17:37.151Z,94.1803
2023-04-27T07:18:37.830Z,93.8062
2023-04-27T07:19:38.980Z,92.9602
2023-04-27T07:20:39.761Z,93.0525
2023-04-27T07:21:40.462Z,93.3925
2023-04-27T07:22:41.124Z,93.2202
2023-04-27T07:23:41.619Z,92.4963
2023-04-27T07:24:42.177Z,92.5050
2023-04-27T07:25:42.876Z,92.3422
2023-04-27T07:26:43.409Z,91.8725
2023-04-27T07:27:44.105Z,91.6015
2023-04-27T07:28:44.732Z,92.1048
2023-04-27T07:29:45.197Z,92.3528
2023-04-27T07:30:45.884Z,92.6555
2023-04-27T07:31:46.818Z,92.7636
2023-04-27T07:32:47.729Z,91.6637
2023-04-27T07:33:48.517Z,91.4764
2023-04-27T07:34:53.703Z,91.7171
2023-04-27T07:35:50.310Z,91.1990
2023-04-27T07:36:51.066Z,91.2482
2023-04-27T07:37:51.805Z,91.6814
2023-04-27T07:38:52.285Z,90.5163
2023-04-27T07:39:53.019Z,89.8157
2023-04-27T07:40:53.254Z,89.6841
2023-04-27T07:41:53.884Z,89.4492
2023-04-27T07:42:54.598Z,87.6826
2023-04-27T07:43:55.047Z,87.2542
2023-04-27T07:44:55.809Z,87.5582
2023-04-27T07:45:56.669Z,88.2251
2023-04-27T07:46:57.756Z,88.4602
2023-04-27T07:47:58.994Z,88.4316
2023-04-27T07:48:58.751Z,89.0178
2023-04-27T07:49:59.261Z,89.0712
2023-04-27T07:50:59.922Z,88.6023
2023-04-27T07:52:00.387Z,88.3528
2023-04-27T07:53:01.058Z,88.5831
2023-04-27T07:54:01.887Z,88.9390
2023-04-27T07:55:02.753Z,88.6591
2023-04-27T07:56:03.551Z,87.1915
2023-04-27T07:57:04.281Z,86.7204
2023-04-27T07:58:04.872Z,86.9968
2023-04-27T07:59:05.566Z,86.0589
2023-04-27T08:00:06.714Z,85.9664
2023-04-27T08:01:07.538Z,85.6127
2023-04-27T08:02:19.697Z,86.0907
2023-04-27T08:03:12.509Z,85.7588
2023-04-27T08:04:12.646Z,86.5680
2023-04-27T08:05:12.925Z,85.9350
2023-04-27T08:06:13.201Z,85.3028
2023-04-27T08:07:14.072Z,85.1083
2023-04-27T08:08:14.899Z,85.2731
2023-04-27T08:09:14.758Z,84.4515
2023-04-27T08:10:14.534Z,84.0647
2023-04-27T08:11:15.199Z,85.1244
2023-04-27T08:12:16.105Z,85.8465
2023-04-27T08:13:16.665Z,84.2535
2023-04-27T08:14:17.169Z,84.6601
2023-04-27T08:15:18.247Z,85.7071
2023-04-27T08:16:18.930Z,87.5315
2023-04-27T08:17:20.124Z,88.1562
2023-04-27T08:18:21.176Z,88.8057
2023-04-27T08:19:22.066Z,89.6401
2023-04-27T08:20:22.844Z,89.6528
2023-04-27T08:21:23.528Z,90.2526
2023-04-27T08:22:24.190Z,90.4084
2023-04-27T08:23:24.998Z,90.4820
2023-04-27T08:24:25.657Z,89.9768
2023-04-27T08:25:26.373Z,88.4586
2023-04-27T08:26:28.543Z,86.3176
2023-04-27T08:27:29.255Z,86.3767
2023-04-27T08:28:29.988Z,85.8337
2023-04-27T08:29:30.969Z,86.1357
2023-04-27T08:30:31.718Z,85.1589
2023-04-27T08:31:32.474Z,84.4550
2023-04-27T08:32:33.884Z,83.9533
2023-04-27T08:33:34.736Z,83.2319
2023-04-27T08:34:35.240Z,83.0016
2023-04-27T08:35:35.981Z,84.1251
2023-04-27T08:36:36.548Z,85.6802
2023-04-27T08:37:37.273Z,85.4973
2023-04-27T08:38:37.944Z,84.7549
2023-04-27T08:39:38.941Z,83.0360
2023-04-27T08:40:39.655Z,82.7036
2023-04-27T08:41:40.311Z,82.8498
2023-04-27T08:42:41.035Z,83.8764
2023-04-27T08:43:41.858Z,82.8818
2023-04-27T08:44:42.955Z,83.0843
2023-04-27T08:45:43.499Z,84.7493
2023-04-27T08:46:44.719Z,81.9997
2023-04-27T08:47:46.159Z,81.9753
2023-04-27T08:48:47.004Z,82.9537
2023-04-27T08:49:47.207Z,83.4082
2023-04-27T08:50:47.447Z,84.2001
2023-04-27T08:51:48.181Z,83.2809
2023-04-27T08:52:48.930Z,82.6141
2023-04-27T08:53:49.546Z,83.6757
2023-04-27T08:54:50.255Z,84.2819
2023-04-27T08:55:51.065Z,83.3349
2023-04-27T08:56:51.650Z,83.0564
2023-04-27T08:57:52.356Z,82.4028
2023-04-27T08:58:52.824Z,81.9861
2023-04-27T08:59:53.480Z,82.9237
2023-04-27T09:00:54.443Z,82.4577
2023-04-27T09:01:55.520Z,81.6874
2023-04-27T09:02:56.000Z,81.0937
2023-04-27T09:03:56.280Z,81.9630
2023-04-27T09:04:57.316Z,80.6701
2023-04-27T09:06:06.005Z,80.4141
2023-04-27T09:07:04.486Z,80.2946
2023-04-27T09:08:05.144Z,81.4026
2023-04-27T09:09:05.886Z,79.2391
2023-04-27T09:10:07.164Z,78.2144
2023-04-27T09:11:07.742Z,78.5920
2023-04-27T09:12:08.365Z,80.7404
2023-04-27T09:13:08.893Z,80.6998
2023-04-27T09:14:09.554Z,80.2276
2023-04-27T09:15:10.264Z,80.4874
2023-04-27T09:16:11.029Z,80.5135
2023-04-27T09:17:11.086Z,79.9158
2023-04-27T09:18:11.919Z,79.0861
2023-04-27T09:19:12.890Z,77.6309
2023-04-27T09:20:13.692Z,77.2704
2023-04-27T09:21:14.796Z,75.2804
2023-04-27T09:22:15.159Z,73.4581
2023-04-27T09:23:15.884Z,73.3235
2023-04-27T09:24:16.615Z,72.4259
2023-04-27T09:25:17.089Z,73.5729
2023-04-27T09:26:17.853Z,73.5981
2023-04-27T09:27:18.696Z,73.7374
2023-04-27T09:28:19.541Z,73.6207
2023-04-27T09:29:20.220Z,73.6531
2023-04-27T09:30:21.044Z,73.1710
2023-04-27T09:31:21.835Z,73.4283
2023-04-27T09:32:23.006Z,74.3121
2023-04-27T09:33:23.858Z,73.8918
2023-04-27T09:34:24.838Z,73.4026
2023-04-27T09:35:25.506Z,73.6676
2023-04-27T09:36:26.004Z,73.8353
2023-04-27T09:37:26.689Z,73.8184
2023-04-27T09:38:26.776Z,74.5738
2023-04-27T09:39:27.477Z,74.5686
2023-04-27T09:40:28.160Z,73.8417
2023-04-27T09:41:28.638Z,73.4985
2023-04-27T09:42:29.313Z,73.1055
2023-04-27T09:43:30.121Z,74.0903
2023-04-27T09:44:30.855Z,74.6036
2023-04-27T09:45:31.609Z,71.2551
2023-04-27T09:46:32.611Z,69.2353
2023-04-27T09:47:33.283Z,70.4206
2023-04-27T09:48:34.112Z,73.7910
2023-04-27T09:49:35.241Z,72.5459
2023-04-27T09:50:37.899Z,73.4595
2023-04-27T09:51:36.417Z,71.6800
2023-04-27T09:52:37.154Z,72.2412
2023-04-27T09:53:37.918Z,70.3558
2023-04-27T09:54:38.562Z,70.8781
2023-04-27T09:55:39.087Z,69.1283
2023-04-27T09:56:39.748Z,68.2021
2023-04-27T09:57:40.222Z,68.6204
2023-04-27T09:58:40.919Z,66.9470
2023-04-27T09:59:41.794Z,66.7925
2023-04-27T10:00:42.311Z,66.6577
2023-04-27T10:01:43.528Z,67.9363
2023-04-27T10:02:53.051Z,70.9647
2023-04-27T10:03:48.640Z,70.6411
2023-04-27T10:04:49.067Z,69.9696
2023-04-27T10:05:50.000Z,69.0706
2023-04-27T10:06:50.621Z,69.2315
2023-04-27T10:07:51.341Z,68.0198
2023-04-27T10:08:51.858Z,66.2537
2023-04-27T10:09:52.038Z,64.9960
2023-04-27T10:10:53.148Z,65.6597
2023-04-27T10:11:53.636Z,64.8501
2023-04-27T10:12:54.394Z,65.8787
2023-04-27T10:13:55.117Z,61.9378
2023-04-27T10:14:56.095Z,62.8603
2023-04-27T10:15:56.827Z,62.4485
2023-04-27T10:16:58.413Z,63.3169
2023-04-27T10:17:59.340Z,62.6509
2023-04-27T10:19:00.511Z,66.5045
2023-04-27T10:20:01.392Z,63.8145
2023-04-27T10:21:02.037Z,61.8371
2023-04-27T10:22:02.779Z,63.0774
2023-04-27T10:23:03.410Z,62.0325
2023-04-27T10:24:04.077Z,61.6941
2023-04-27T10:25:04.732Z,63.0092
2023-04-27T10:26:05.285Z,62.1621
2023-04-27T10:27:05.898Z,61.1537
2023-04-27T10:28:06.573Z,61.2680
2023-04-27T10:29:07.132Z,62.8815
2023-04-27T10:30:07.992Z,63.0894
2023-04-27T10:31:08.604Z,63.5068
2023-04-27T10:32:09.395Z,62.1844
2023-04-27T10:33:09.627Z,62.3287
2023-04-27T10:34:10.244Z,61.8609
2023-04-27T10:35:10.928Z,60.2601
2023-04-27T10:36:11.448Z,60.0328
2023-04-27T10:37:12.155Z,59.2592
2023-04-27T10:38:12.749Z,60.2682
2023-04-27T10:39:13.355Z,61.5356
2023-04-27T10:40:28.572Z,59.7171
2023-04-27T10:41:29.267Z,59.9908
2023-04-27T10:42:29.813Z,62.6655
2023-04-27T10:43:30.444Z,60.7509
2023-04-27T10:44:31.263Z,59.6062
2023-04-27T10:45:32.102Z,58.5476
2023-04-27T10:46:31.946Z,57.3195
2023-04-27T10:47:32.498Z,57.5603
2023-04-27T10:48:33.759Z,57.5080
2023-04-27T10:49:34.424Z,57.9778
2023-04-27T10:50:34.935Z,57.7494
2023-04-27T10:51:35.603Z,58.2398
2023-04-27T10:52:36.264Z,59.4314
2023-04-27T10:53:36.830Z,59.2825
2023-04-27T10:54:37.575Z,57.9378
2023-04-27T10:55:38.087Z,58.1955
2023-04-27T10:56:38.762Z,58.9993
2023-04-27T10:57:39.547Z,59.9748
2023-04-27T10:58:48.907Z,59.5061
2023-04-27T10:59:41.243Z,58.7188
2023-04-27T11:00:41.899Z,58.7218
2023-04-27T11:01:42.618Z,60.6877
2023-04-27T11:02:43.820Z,58.5298
2023-04-27T11:03:45.857Z,57.3926
2023-04-27T11:04:45.872Z,57.9417
2023-04-27T11:05:46.713Z,57.3102
2023-04-27T11:06:47.244Z,57.1194
2023-04-27T11:07:47.894Z,57.4960
2023-04-27T11:08:48.511Z,57.2019
2023-04-27T11:09:48.962Z,57.2496
2023-04-27T11:10:49.715Z,57.7922
2023-04-27T11:11:50.697Z,58.8762
2023-04-27T11:12:51.197Z,58.6469
2023-04-27T11:13:51.907Z,58.6469
2023-04-27T11:14:52.479Z,57.7216
2023-04-27T11:15:53.549Z,58.3795
2023-04-27T11:16:54.700Z,57.9148
2023-04-27T11:17:55.479Z,57.5581
2023-04-27T11:18:57.907Z,57.2823
2023-04-27T11:19:57.549Z,57.4822
2023-04-27T11:20:58.501Z,57.7460
2023-04-27T11:21:59.291Z,57.3165
2023-04-27T11:22:59.914Z,57.8393
2023-04-27T11:24:00.487Z,58.6391
2023-04-27T11:25:01.534Z,58.8879
2023-04-27T11:26:01.960Z,59.9132
2023-04-27T11:27:02.518Z,59.5893
2023-04-27T11:28:03.206Z,58.0787
2023-04-27T11:29:03.641Z,58.3245
2023-04-27T11:30:03.658Z,58.4323
2023-04-27T11:31:04.315Z,59.2261
2023-04-27T11:32:05.113Z,58.7785
2023-04-27T11:33:06.071Z,58.4976
2023-04-27T11:34:07.924Z,59.4594
2023-04-27T11:35:07.493Z,60.6570
2023-04-27T11:36:08.128Z,59.1500
2023-04-27T11:38:09.488Z,58.0429
2023-04-27T11:39:10.466Z,58.9361
2023-04-27T11:40:11.190Z,59.4660
2023-04-27T11:41:11.879Z,54.4619
2023-04-27T11:42:12.555Z,53.4114
2023-04-27T11:43:13.127Z,52.8670
2023-04-27T11:44:13.812Z,52.3616
2023-04-27T11:45:14.398Z,52.4344
2023-04-27T11:46:15.043Z,51.2733
2023-04-27T11:47:17.524Z,49.7211
2023-04-27T11:48:16.880Z,46.9421
2023-04-27T11:49:18.075Z,46.5226
2023-04-27T11:50:18.864Z,45.2632
2023-04-27T11:51:19.428Z,45.8570
2023-04-27T11:52:20.060Z,44.7744
2023-04-27T11:53:20.807Z,45.6256
2023-04-27T11:54:21.817Z,45.1739
2023-04-27T11:55:22.460Z,46.1588
2023-04-27T11:56:23.232Z,46.5057
2023-04-27T11:57:23.650Z,46.8025
2023-04-27T11:58:24.327Z,47.3175
2023-04-27T11:59:25.239Z,48.1210
2023-04-27T12:00:26.017Z,47.9389
2023-04-27T12:01:36.923Z,47.3293
2023-04-27T12:02:27.962Z,47.0987
2023-04-27T12:03:27.848Z,45.3388
2023-04-27T12:04:29.877Z,45.7335
2023-04-27T12:05:30.161Z,45.7424
2023-04-27T12:06:34.688Z,47.2215
2023-04-27T12:07:35.671Z,46.8131
2023-04-27T12:08:36.446Z,47.0922
2023-04-27T12:09:37.562Z,47.3476
2023-04-27T12:10:38.341Z,48.0121
2023-04-27T12:11:38.946Z,46.8167
2023-04-27T12:12:39.593Z,46.5715
2023-04-27T12:13:40.325Z,47.5574
2023-04-27T12:14:41.120Z,48.2330
2023-04-27T12:15:42.197Z,48.9091
2023-04-27T12:16:43.155Z,47.4543
2023-04-27T12:17:44.291Z,47.2000
2023-04-27T12:18:45.229Z,47.9630
2023-04-27T12:19:45.777Z,45.5045
2023-04-27T12:20:46.532Z,45.3391
2023-04-27T12:21:46.892Z,44.9956
2023-04-27T12:22:47.380Z,43.1224
2023-04-27T12:23:48.051Z,44.6023
2023-04-27T12:24:49.097Z,44.5173
2023-04-27T12:25:49.883Z,43.9400
2023-04-27T12:26:50.524Z,44.0974
2023-04-27T12:27:51.010Z,45.4299
2023-04-27T12:28:51.714Z,46.7616
2023-04-27T12:29:52.214Z,45.3428
2023-04-27T12:30:52.968Z,43.4858
2023-04-27T12:31:54.009Z,42.2136
2023-04-27T12:32:54.596Z,41.4038
2023-04-27T12:33:55.556Z,41.7100
2023-04-27T12:34:56.347Z,41.7677
2023-04-27T12:35:56.862Z,41.2743
2023-04-27T12:36:57.621Z,40.8907
2023-04-27T12:37:58.416Z,42.2163
2023-04-27T12:38:59.046Z,42.7625
2023-04-27T12:39:59.813Z,42.8943
2023-04-27T12:41:00.906Z,40.2538
2023-04-27T12:42:01.541Z,40.3394
2023-04-27T12:43:03.152Z,39.2165
2023-04-27T12:44:03.984Z,40.0416
2023-04-27T12:45:04.273Z,40.5651
2023-04-27T12:46:05.093Z,39.5248
2023-04-27T12:47:05.749Z,39.9386
2023-04-27T12:48:06.457Z,40.2196
2023-04-27T12:49:07.169Z,38.6125
2023-04-27T12:50:07.789Z,38.3006
2023-04-27T12:51:08.396Z,38.7253
2023-04-27T12:52:08.951Z,39.7603
2023-04-27T12:53:09.542Z,40.1802
2023-04-27T12:54:11.281Z,38.7480